Morning Compass — C6ZY8 — position and weather

sailwx.info

Track history (hours):
 
Tides and Currents Weather Stations Pressure Air Temp Water Temp Dewpoint Dewpoint Depression Visibility Wind Speed Wind Dir Waves Ship Positions

Morning Compass

Last reported at 2017-Nov-28 03:58 UTC. Time now 2017-Dec-11 05:55 UTC.
Position N 31°08' W 081°32'.
Warning: this ship's position is 13 days out of date.

Length 200 m; draft 9.5 m.

Type: Cargo ship. MMSI: 311072400.

Date/timePositionNaut miles runAvg speedWind from/ knotsBaromVisibWave heightAir tempDewpointWater temp
2017-Nov-28 03:58N 31°08' W 081°32'0 0.0
2017-Nov-28 03:28N 31°08' W 081°32'0 0.0
2017-Nov-28 02:22N 31°08' W 081°32'0 0.0
2017-Nov-28 01:34N 31°08' W 081°32'0 0.0
2017-Nov-28 01:10N 31°08' W 081°32'0 0.0
2017-Nov-28 00:46N 31°08' W 081°32'0 0.0
2017-Nov-28 00:16N 31°08' W 081°32'21 1.0
2017-Nov-27 02:52N 31°02' W 081°08'51114.0
2017-Nov-25 14:17N 37°17' W 074°09'517.3
2017-Nov-25 14:00N 37°22' W 074°09'918.3
2017-Nov-25 13:30N 37°31' W 074°07'918.0
2017-Nov-25 13:00N 37°40' W 074°06'1017.0
2017-Nov-25 12:24N 37°50' W 074°04'717.2
2017-Nov-25 12:00N 37°57' W 074°03'917.1
2017-Nov-25 11:30N 38°05' W 074°02'816.7
2017-Nov-25 11:00N 38°13' W 074°01'816.9
2017-Nov-25 10:31N 38°22' W 073°60'1017.1
2017-Nov-25 09:55N 38°32' W 073°58'817.1
2017-Nov-25 09:27N 38°40' W 073°57'817.2
2017-Nov-25 08:59N 38°48' W 073°56'1117.0
2017-Nov-25 08:21N 38°58' W 073°55'817.0
2017-Nov-25 07:51N 39°07' W 073°54'616.9
2017-Nov-25 07:30N 39°13' W 073°53'916.9
2017-Nov-25 07:00N 39°21' W 073°53'816.8
2017-Nov-25 06:30N 39°29' W 073°53'816.8
2017-Nov-25 06:00N 39°38' W 073°53'816.6
2017-Nov-25 05:30N 39°46' W 073°53'816.7
2017-Nov-25 05:01N 39°54' W 073°52'816.6
2017-Nov-25 04:30N 40°03' W 073°50'713.9
2017-Nov-25 04:00N 40°10' W 073°49'5 9.0
2017-Nov-25 03:30N 40°14' W 073°49'4 8.5
2017-Nov-25 03:00N 40°18' W 073°49'4 8.6
2017-Nov-25 02:29N 40°23' W 073°48'4 8.3
2017-Nov-25 02:00N 40°27' W 073°47'5 9.1
2017-Nov-25 01:30N 40°29' W 073°53'510.1
2017-Nov-25 01:00N 40°31' W 073°59'613.0
2017-Nov-25 00:30N 40°37' W 074°03'4 7.6
2017-Nov-25 00:00N 40°40' W 074°05'0 0.3
2017-Nov-24 23:29N 40°40' W 074°05'0 0.0
2017-Nov-24 22:59N 40°40' W 074°05'0 0.0
2017-Nov-24 22:29N 40°40' W 074°05'0 0.0
2017-Nov-24 21:59N 40°40' W 074°05'0 0.0
2017-Nov-24 21:29N 40°40' W 074°05'0 0.0
2017-Nov-24 20:59N 40°40' W 074°05'0 0.0
2017-Nov-24 20:29N 40°40' W 074°05'0 0.0
2017-Nov-24 19:59N 40°40' W 074°05'0 0.0
2017-Nov-24 19:29N 40°40' W 074°05'0 0.0
2017-Nov-24 18:59N 40°40' W 074°05'0 0.0
2017-Nov-24 18:29N 40°40' W 074°05'0 0.0
2017-Nov-24 17:59N 40°40' W 074°05'0 0.0
2017-Nov-24 17:29N 40°40' W 074°05'0 0.0
2017-Nov-24 16:59N 40°40' W 074°05'0 0.0
2017-Nov-24 16:29N 40°40' W 074°05'0 0.0
2017-Nov-24 15:59N 40°40' W 074°05'0 0.0
2017-Nov-24 15:29N 40°40' W 074°05'0 0.0
2017-Nov-24 14:59N 40°40' W 074°05'0 0.0
2017-Nov-24 14:29N 40°40' W 074°05'0 0.0
2017-Nov-24 13:59N 40°40' W 074°05'0 0.0
2017-Nov-24 13:29N 40°40' W 074°05'0 0.0
2017-Nov-24 12:59N 40°40' W 074°05'0 0.0
2017-Nov-24 12:29N 40°40' W 074°05'0 0.0
2017-Nov-24 11:59N 40°40' W 074°05'0 0.0
2017-Nov-24 11:29N 40°40' W 074°05'0 0.0
2017-Nov-24 10:59N 40°40' W 074°05'0 0.0
2017-Nov-24 10:29N 40°40' W 074°05'0 0.0
2017-Nov-24 09:59N 40°40' W 074°05'0 0.0
2017-Nov-24 09:29N 40°40' W 074°05'0 0.0
2017-Nov-24 08:59N 40°40' W 074°05'0 0.0
2017-Nov-24 08:29N 40°40' W 074°05'0 0.0
2017-Nov-24 07:59N 40°40' W 074°05'0 0.0
2017-Nov-24 07:29N 40°40' W 074°05'0 0.0
2017-Nov-24 06:59N 40°40' W 074°05'0 0.0
2017-Nov-24 06:29N 40°40' W 074°05'0 0.0
2017-Nov-24 05:59N 40°40' W 074°05'0 0.0
2017-Nov-24 05:29N 40°40' W 074°05'0 0.0
2017-Nov-24 04:59N 40°40' W 074°05'0 0.0
2017-Nov-24 04:29N 40°40' W 074°05'0 0.0
2017-Nov-24 03:59N 40°40' W 074°05'0 0.0
2017-Nov-24 03:29N 40°40' W 074°05'0 0.0
2017-Nov-24 02:59N 40°40' W 074°05'0 0.4
2017-Nov-24 02:30N 40°40' W 074°05'1 1.8
2017-Nov-24 02:00N 40°40' W 074°04'3 6.4
2017-Nov-24 01:30N 40°37' W 074°03'612.0
2017-Nov-24 01:00N 40°31' W 073°60'610.6
2017-Nov-24 00:28N 40°29' W 073°53'4 8.6
2017-Nov-24 00:00N 40°27' W 073°48'4 8.6
2017-Nov-23 23:30N 40°23' W 073°47'4 7.8
2017-Nov-23 23:00N 40°19' W 073°46'107 7.3
2017-Nov-23 08:19N 38°51' W 075°04'414.2
2017-Nov-23 08:01N 38°55' W 075°06'816.6
2017-Nov-23 07:31N 39°03' W 075°10'815.9
2017-Nov-23 07:01N 39°09' W 075°15'815.1
2017-Nov-23 06:31N 39°16' W 075°20'714.5
2017-Nov-23 06:01N 39°21' W 075°26'714.0
2017-Nov-23 05:30N 39°26' W 075°33'612.5
2017-Nov-23 05:01N 39°33' W 075°33'611.4
2017-Nov-23 04:30N 39°38' W 075°34'612.9
2017-Nov-23 04:00N 39°44' W 075°30'612.0
2017-Nov-23 03:31N 39°48' W 075°25'5 9.8
2017-Nov-23 03:01N 39°51' W 075°20'5 9.7
2017-Nov-23 02:31N 39°52' W 075°13'4 8.9
2017-Nov-23 02:01N 39°54' W 075°08'0 0.8
2017-Nov-23 01:30N 39°54' W 075°08'0 0.0
2017-Nov-23 01:00N 39°54' W 075°08'0 0.0
2017-Nov-23 00:30N 39°54' W 075°08'0 0.0
2017-Nov-23 00:00N 39°54' W 075°08'0 0.0
2017-Nov-22 23:30N 39°54' W 075°08'0 0.0
2017-Nov-22 23:00N 39°54' W 075°08'0 0.0
2017-Nov-22 22:30N 39°54' W 075°08'0 0.0
2017-Nov-22 22:00N 39°54' W 075°08'0 0.0
2017-Nov-22 21:30N 39°54' W 075°08'0 0.0
2017-Nov-22 21:00N 39°54' W 075°08'0 0.0
2017-Nov-22 20:30N 39°54' W 075°08'0 0.0
2017-Nov-22 20:00N 39°54' W 075°08'0 0.0
2017-Nov-22 19:30N 39°54' W 075°08'  
Track history (hours):
 
Tides and Currents Weather Stations Pressure Air Temp Water Temp Dewpoint Dewpoint Depression Visibility Wind Speed Wind Dir Waves Ship Positions

Morning Compass

Last reported at 2017-Nov-28 03:58 UTC. Time now 2017-Dec-11 05:55 UTC.
Position N 31°08' W 081°32'.
Warning: this ship's position is 13 days out of date.

Length 200 m; draft 9.5 m.

Type: Cargo ship. MMSI: 311072400.

Date/timePositionNaut miles runAvg speedWind from/ knotsBaromVisibWave heightAir tempDewpointWater temp
2017-Nov-28 03:58N 31°08' W 081°32'0 0.0
2017-Nov-28 03:28N 31°08' W 081°32'0 0.0
2017-Nov-28 02:22N 31°08' W 081°32'0 0.0
2017-Nov-28 01:34N 31°08' W 081°32'0 0.0
2017-Nov-28 01:10N 31°08' W 081°32'0 0.0
2017-Nov-28 00:46N 31°08' W 081°32'0 0.0
2017-Nov-28 00:16N 31°08' W 081°32'21 1.0
2017-Nov-27 02:52N 31°02' W 081°08'51114.0
2017-Nov-25 14:17N 37°17' W 074°09'517.3
2017-Nov-25 14:00N 37°22' W 074°09'918.3
2017-Nov-25 13:30N 37°31' W 074°07'918.0
2017-Nov-25 13:00N 37°40' W 074°06'1017.0
2017-Nov-25 12:24N 37°50' W 074°04'717.2
2017-Nov-25 12:00N 37°57' W 074°03'917.1
2017-Nov-25 11:30N 38°05' W 074°02'816.7
2017-Nov-25 11:00N 38°13' W 074°01'816.9
2017-Nov-25 10:31N 38°22' W 073°60'1017.1
2017-Nov-25 09:55N 38°32' W 073°58'817.1
2017-Nov-25 09:27N 38°40' W 073°57'817.2
2017-Nov-25 08:59N 38°48' W 073°56'1117.0
2017-Nov-25 08:21N 38°58' W 073°55'817.0
2017-Nov-25 07:51N 39°07' W 073°54'616.9
2017-Nov-25 07:30N 39°13' W 073°53'916.9
2017-Nov-25 07:00N 39°21' W 073°53'816.8
2017-Nov-25 06:30N 39°29' W 073°53'816.8
2017-Nov-25 06:00N 39°38' W 073°53'816.6
2017-Nov-25 05:30N 39°46' W 073°53'816.7
2017-Nov-25 05:01N 39°54' W 073°52'816.6
2017-Nov-25 04:30N 40°03' W 073°50'713.9
2017-Nov-25 04:00N 40°10' W 073°49'5 9.0
2017-Nov-25 03:30N 40°14' W 073°49'4 8.5
2017-Nov-25 03:00N 40°18' W 073°49'4 8.6
2017-Nov-25 02:29N 40°23' W 073°48'4 8.3
2017-Nov-25 02:00N 40°27' W 073°47'5 9.1
2017-Nov-25 01:30N 40°29' W 073°53'510.1
2017-Nov-25 01:00N 40°31' W 073°59'613.0
2017-Nov-25 00:30N 40°37' W 074°03'4 7.6
2017-Nov-25 00:00N 40°40' W 074°05'0 0.3
2017-Nov-24 23:29N 40°40' W 074°05'0 0.0
2017-Nov-24 22:59N 40°40' W 074°05'0 0.0
2017-Nov-24 22:29N 40°40' W 074°05'0 0.0
2017-Nov-24 21:59N 40°40' W 074°05'0 0.0
2017-Nov-24 21:29N 40°40' W 074°05'0 0.0
2017-Nov-24 20:59N 40°40' W 074°05'0 0.0
2017-Nov-24 20:29N 40°40' W 074°05'0 0.0
2017-Nov-24 19:59N 40°40' W 074°05'0 0.0
2017-Nov-24 19:29N 40°40' W 074°05'0 0.0
2017-Nov-24 18:59N 40°40' W 074°05'0 0.0
2017-Nov-24 18:29N 40°40' W 074°05'0 0.0
2017-Nov-24 17:59N 40°40' W 074°05'0 0.0
2017-Nov-24 17:29N 40°40' W 074°05'0 0.0
2017-Nov-24 16:59N 40°40' W 074°05'0 0.0
2017-Nov-24 16:29N 40°40' W 074°05'0 0.0
2017-Nov-24 15:59N 40°40' W 074°05'0 0.0
2017-Nov-24 15:29N 40°40' W 074°05'0 0.0
2017-Nov-24 14:59N 40°40' W 074°05'0 0.0
2017-Nov-24 14:29N 40°40' W 074°05'0 0.0
2017-Nov-24 13:59N 40°40' W 074°05'0 0.0
2017-Nov-24 13:29N 40°40' W 074°05'0 0.0
2017-Nov-24 12:59N 40°40' W 074°05'0 0.0
2017-Nov-24 12:29N 40°40' W 074°05'0 0.0
2017-Nov-24 11:59N 40°40' W 074°05'0 0.0
2017-Nov-24 11:29N 40°40' W 074°05'0 0.0
2017-Nov-24 10:59N 40°40' W 074°05'0 0.0
2017-Nov-24 10:29N 40°40' W 074°05'0 0.0
2017-Nov-24 09:59N 40°40' W 074°05'0 0.0
2017-Nov-24 09:29N 40°40' W 074°05'0 0.0
2017-Nov-24 08:59N 40°40' W 074°05'0 0.0
2017-Nov-24 08:29N 40°40' W 074°05'0 0.0
2017-Nov-24 07:59N 40°40' W 074°05'0 0.0
2017-Nov-24 07:29N 40°40' W 074°05'0 0.0
2017-Nov-24 06:59N 40°40' W 074°05'0 0.0
2017-Nov-24 06:29N 40°40' W 074°05'0 0.0
2017-Nov-24 05:59N 40°40' W 074°05'0 0.0
2017-Nov-24 05:29N 40°40' W 074°05'0 0.0
2017-Nov-24 04:59N 40°40' W 074°05'0 0.0
2017-Nov-24 04:29N 40°40' W 074°05'0 0.0
2017-Nov-24 03:59N 40°40' W 074°05'0 0.0
2017-Nov-24 03:29N 40°40' W 074°05'0 0.0
2017-Nov-24 02:59N 40°40' W 074°05'0 0.4
2017-Nov-24 02:30N 40°40' W 074°05'1 1.8
2017-Nov-24 02:00N 40°40' W 074°04'3 6.4
2017-Nov-24 01:30N 40°37' W 074°03'612.0
2017-Nov-24 01:00N 40°31' W 073°60'610.6
2017-Nov-24 00:28N 40°29' W 073°53'4 8.6
2017-Nov-24 00:00N 40°27' W 073°48'4 8.6
2017-Nov-23 23:30N 40°23' W 073°47'4 7.8
2017-Nov-23 23:00N 40°19' W 073°46'107 7.3
2017-Nov-23 08:19N 38°51' W 075°04'414.2
2017-Nov-23 08:01N 38°55' W 075°06'816.6
2017-Nov-23 07:31N 39°03' W 075°10'815.9
2017-Nov-23 07:01N 39°09' W 075°15'815.1
2017-Nov-23 06:31N 39°16' W 075°20'714.5
2017-Nov-23 06:01N 39°21' W 075°26'714.0
2017-Nov-23 05:30N 39°26' W 075°33'612.5
2017-Nov-23 05:01N 39°33' W 075°33'611.4
2017-Nov-23 04:30N 39°38' W 075°34'612.9
2017-Nov-23 04:00N 39°44' W 075°30'612.0
2017-Nov-23 03:31N 39°48' W 075°25'5 9.8
2017-Nov-23 03:01N 39°51' W 075°20'5 9.7
2017-Nov-23 02:31N 39°52' W 075°13'4 8.9
2017-Nov-23 02:01N 39°54' W 075°08'0 0.8
2017-Nov-23 01:30N 39°54' W 075°08'0 0.0
2017-Nov-23 01:00N 39°54' W 075°08'0 0.0
2017-Nov-23 00:30N 39°54' W 075°08'0 0.0
2017-Nov-23 00:00N 39°54' W 075°08'0 0.0
2017-Nov-22 23:30N 39°54' W 075°08'0 0.0
2017-Nov-22 23:00N 39°54' W 075°08'0 0.0
2017-Nov-22 22:30N 39°54' W 075°08'0 0.0
2017-Nov-22 22:00N 39°54' W 075°08'0 0.0
2017-Nov-22 21:30N 39°54' W 075°08'0 0.0
2017-Nov-22 21:00N 39°54' W 075°08'0 0.0
2017-Nov-22 20:30N 39°54' W 075°08'0 0.0
2017-Nov-22 20:00N 39°54' W 075°08'0 0.0
2017-Nov-22 19:30N 39°54' W 075°08'  

Dump ship's entire track history